Terminal Aerodrome Forecast
Issued by NWS

Home | Current Version | Previous Version | Text Only | Print | Product List | Glossary On
Versions: 1 2 3 4 5 6 7 8 9 10 11 12 13 14 15 16 17 18 19
000
FTUS42 TJSJ 291732
TAFJBQ
TAF
TJBQ 291732Z 2918/3018 08015KT P6SM VCSH SCT025 BKN050
     FM292300 11005KT P6SM SCT060
     FM301400 08010KT P6SM SCT025 SCT050
      AMD NOT SKED 3002/3011=

USA.gov is the U.S. government's official web portal to all federal, state and local government web resources and services.